createdAt,value
2018-04-18T00:02:02.019Z,17.03
2018-04-18T00:04:32.708Z,21.03
2018-04-18T00:07:03.563Z,19.50
2018-04-18T00:09:34.569Z,21.33
2018-04-18T00:12:05.393Z,16.47
2018-04-18T00:14:36.073Z,17.00
2018-04-18T00:17:07.027Z,16.63
2018-04-18T00:19:38.486Z,15.97
2018-04-18T00:22:09.193Z,15.43
2018-04-18T00:24:40.188Z,19.83
2018-04-18T00:27:11.216Z,18.20
2018-04-18T00:29:41.943Z,20.13
2018-04-18T00:32:12.953Z,15.83
2018-04-18T00:34:43.718Z,19.00
2018-04-18T00:37:14.531Z,16.00
2018-04-18T00:39:45.506Z,17.57
2018-04-18T00:42:16.491Z,18.87
2018-04-18T00:44:47.939Z,20.43
2018-04-18T00:47:19.424Z,17.27
2018-04-18T00:49:50.096Z,15.40
2018-04-18T00:52:21.507Z,17.37
2018-04-18T00:54:52.453Z,18.00
2018-04-18T00:57:23.281Z,16.03
2018-04-18T00:59:54.828Z,19.43
2018-04-18T01:02:26.580Z,20.17
2018-04-18T01:04:57.652Z,20.23
2018-04-18T01:07:28.472Z,22.33
2018-04-18T01:09:59.545Z,18.13
2018-04-18T01:12:30.876Z,20.20
2018-04-18T01:15:01.571Z,20.23
2018-04-18T01:17:32.304Z,18.43
2018-04-18T01:20:03.340Z,20.87
2018-04-18T01:22:34.808Z,21.73
2018-04-18T01:25:06.276Z,20.03
2018-04-18T01:27:36.952Z,19.27
2018-04-18T01:30:07.672Z,23.40
2018-04-18T01:32:39.709Z,19.57
2018-04-18T01:35:10.384Z,16.40
2018-04-18T01:37:41.205Z,18.27
2018-04-18T01:40:12.188Z,18.50
2018-04-18T01:42:42.927Z,19.20
2018-04-18T01:45:14.644Z,22.13
2018-04-18T01:47:46.024Z,17.67
2018-04-18T01:50:17.512Z,23.63
2018-04-18T01:52:48.498Z,23.47
2018-04-18T01:55:20.240Z,17.90
2018-04-18T01:57:51.270Z,20.20
2018-04-18T02:00:22.041Z,23.40
2018-04-18T02:02:52.739Z,24.27
2018-04-18T02:05:24.203Z,17.60
2018-04-18T02:07:56.070Z,25.83
2018-04-18T02:10:26.792Z,21.80
2018-04-18T02:12:57.624Z,20.83
2018-04-18T02:15:28.308Z,21.07
2018-04-18T02:18:00.112Z,19.87
2018-04-18T02:20:31.073Z,21.80
2018-04-18T02:23:02.021Z,20.07
2018-04-18T02:25:33.452Z,19.13
2018-04-18T02:28:04.441Z,21.83
2018-04-18T02:30:35.161Z,23.13
2018-04-18T02:33:06.021Z,23.13
2018-04-18T02:35:45.623Z,21.73
2018-04-18T02:38:16.875Z,24.40
2018-04-18T02:40:47.996Z,25.37
2018-04-18T02:43:19.757Z,20.07
2018-04-18T02:45:51.237Z,22.63
2018-04-18T02:48:22.101Z,26.10
2018-04-18T02:50:52.928Z,27.60
2018-04-18T02:53:23.894Z,24.97
2018-04-18T02:55:54.628Z,27.63
2018-04-18T02:58:25.409Z,25.90
2018-04-18T03:00:56.282Z,28.10
2018-04-18T03:03:27.380Z,24.50
2018-04-18T03:05:58.570Z,30.20
2018-04-18T03:08:29.396Z,26.70
2018-04-18T03:11:00.896Z,24.27
2018-04-18T03:13:32.912Z,25.27
2018-04-18T03:16:03.653Z,28.33
2018-04-18T03:18:34.532Z,27.13
2018-04-18T03:21:06.266Z,30.97
2018-04-18T03:23:37.367Z,29.60
2018-04-18T03:26:08.148Z,28.60
2018-04-18T03:28:40.172Z,31.27
2018-04-18T03:31:10.839Z,29.27
2018-04-18T03:33:41.684Z,27.00
2018-04-18T03:36:13.608Z,29.00
2018-04-18T03:38:44.295Z,26.80
2018-04-18T03:41:14.976Z,25.83
2018-04-18T03:43:46.108Z,28.80
2018-04-18T03:46:16.840Z,30.83
2018-04-18T03:48:47.580Z,26.23
2018-04-18T03:51:22.375Z,29.60
2018-04-18T03:53:53.341Z,33.33
2018-04-18T03:56:24.004Z,49.63
2018-04-18T03:58:56.255Z,31.63
2018-04-18T04:01:26.989Z,32.60
2018-04-18T04:04:04.160Z,30.47
2018-04-18T04:06:36.328Z,29.70
2018-04-18T04:09:07.921Z,29.83
2018-04-18T04:11:39.396Z,31.67
2018-04-18T04:14:10.490Z,30.43
2018-04-18T04:18:55.395Z,38.90
2018-04-18T04:23:38.728Z,31.60
2018-04-18T04:26:09.324Z,37.30
2018-04-18T04:28:40.102Z,38.43
2018-04-18T04:31:10.778Z,39.87
2018-04-18T04:33:42.352Z,35.30
2018-04-18T04:36:13.480Z,35.00
2018-04-18T04:38:44.228Z,32.33
2018-04-18T04:41:14.924Z,34.73
2018-04-18T04:43:46.163Z,33.80
2018-04-18T04:46:17.048Z,30.53
2018-04-18T04:48:47.803Z,30.03
2018-04-18T04:51:19.050Z,26.73
2018-04-18T04:53:50.068Z,31.77
2018-04-18T04:56:20.784Z,28.43
2018-04-18T04:58:51.589Z,31.90
2018-04-18T05:01:22.340Z,32.83
2018-04-18T05:03:57.704Z,35.17
2018-04-18T05:06:29.785Z,27.27
2018-04-18T05:09:17.160Z,38.37
2018-04-18T05:11:50.387Z,30.57
2018-04-18T05:14:22.085Z,29.07
2018-04-18T05:16:53.798Z,25.77
2018-04-18T05:19:25.869Z,28.50
2018-04-18T05:21:56.931Z,26.20
2018-04-18T05:24:29.754Z,24.30
2018-04-18T05:27:00.484Z,27.90
2018-04-18T05:29:31.229Z,27.43
2018-04-18T05:32:02.089Z,25.30
2018-04-18T05:34:32.834Z,26.07
2018-04-18T05:37:03.863Z,27.87
2018-04-18T05:39:34.844Z,27.90
2018-04-18T05:42:05.653Z,25.37
2018-04-18T05:44:38.081Z,24.10
2018-04-18T05:47:13.339Z,26.70
2018-04-18T05:49:48.660Z,22.73
2018-04-18T05:52:22.306Z,24.93
2018-04-18T05:54:54.529Z,25.90
2018-04-18T05:57:29.994Z,24.57
2018-04-18T06:00:03.436Z,30.13
2018-04-18T06:02:34.175Z,23.10
2018-04-18T06:05:05.254Z,26.07
2018-04-18T06:07:36.024Z,26.33
2018-04-18T06:10:07.178Z,23.47
2018-04-18T06:12:37.955Z,26.50
2018-04-18T06:15:08.884Z,24.93
2018-04-18T06:17:40.452Z,26.37
2018-04-18T06:20:11.518Z,29.73
2018-04-18T06:22:42.545Z,23.30
2018-04-18T06:25:14.080Z,25.53
2018-04-18T06:27:44.900Z,26.10
2018-04-18T06:30:16.922Z,28.00
2018-04-18T06:32:48.640Z,25.63
2018-04-18T06:35:19.984Z,27.40
2018-04-18T06:37:50.697Z,29.73
2018-04-18T06:40:21.703Z,26.87
2018-04-18T06:42:52.874Z,25.13
2018-04-18T06:45:23.739Z,31.00
2018-04-18T06:47:54.443Z,29.37
2018-04-18T06:50:25.648Z,32.47
2018-04-18T06:52:56.535Z,36.07
2018-04-18T06:55:27.552Z,31.30
2018-04-18T06:57:58.614Z,33.37
2018-04-18T07:00:29.549Z,33.10
2018-04-18T07:03:00.309Z,33.10
2018-04-18T07:05:31.536Z,29.10
2018-04-18T07:08:03.096Z,32.43
2018-04-18T07:10:33.852Z,34.90
2018-04-18T07:13:05.089Z,38.10
2018-04-18T07:15:35.941Z,37.17
2018-04-18T07:18:07.444Z,35.80
2018-04-18T07:20:38.747Z,29.87
2018-04-18T07:23:09.495Z,30.70
2018-04-18T07:25:40.532Z,30.87
2018-04-18T07:28:11.508Z,33.07
2018-04-18T07:30:42.397Z,29.87
2018-04-18T07:33:13.160Z,28.73
2018-04-18T07:35:44.227Z,29.27
2018-04-18T07:38:14.967Z,29.30
2018-04-18T07:40:45.852Z,29.23
2018-04-18T07:43:16.899Z,30.73
2018-04-18T07:45:47.616Z,28.07
2018-04-18T07:48:18.311Z,32.53
2018-04-18T07:50:49.955Z,27.37
2018-04-18T07:53:20.800Z,28.87
2018-04-18T07:55:51.753Z,31.03
2018-04-18T07:58:23.324Z,29.90
2018-04-18T08:00:54.530Z,33.70
2018-04-18T08:03:25.357Z,27.20
2018-04-18T08:05:56.200Z,26.17
2018-04-18T08:08:27.237Z,25.50
2018-04-18T08:10:58.103Z,27.50
2018-04-18T08:13:29.666Z,27.40
2018-04-18T08:16:01.406Z,24.97
2018-04-18T08:18:32.147Z,26.60
2018-04-18T08:21:03.500Z,25.73
2018-04-18T08:23:35.120Z,23.33
2018-04-18T08:26:05.984Z,25.33
2018-04-18T08:28:36.763Z,24.03
2018-04-18T08:31:07.800Z,21.20
2018-04-18T08:33:38.520Z,24.23
2018-04-18T08:36:09.251Z,22.13
2018-04-18T08:38:40.204Z,19.93
2018-04-18T08:41:11.020Z,18.83
2018-04-18T08:43:41.760Z,19.93
2018-04-18T08:46:12.704Z,23.60
2018-04-18T08:48:43.464Z,17.33
2018-04-18T08:51:15.458Z,13.83
2018-04-18T08:53:46.939Z,16.00
2018-04-18T08:56:17.700Z,14.07
2018-04-18T08:58:48.706Z,13.87
2018-04-18T09:01:19.626Z,17.23
2018-04-18T09:03:51.206Z,13.50
2018-04-18T09:06:22.631Z,16.87
2018-04-18T09:08:54.339Z,16.47
2018-04-18T09:11:25.818Z,14.07
2018-04-18T09:13:57.134Z,13.60
2018-04-18T09:16:28.129Z,13.40
2018-04-18T09:18:59.632Z,11.30
2018-04-18T09:21:31.412Z,12.73
2018-04-18T09:24:02.104Z,13.23
2018-04-18T09:26:32.869Z,16.97
2018-04-18T09:29:03.592Z,9.30
2018-04-18T09:31:35.197Z,8.83
2018-04-18T09:34:06.736Z,8.63
2018-04-18T09:36:37.528Z,11.37
2018-04-18T09:39:08.585Z,9.90
2018-04-18T09:41:39.459Z,12.07
2018-04-18T09:44:10.951Z,7.07
2018-04-18T09:46:42.815Z,10.13
2018-04-18T09:49:13.572Z,7.67
2018-04-18T09:51:44.760Z,10.63
2018-04-18T09:54:15.544Z,11.40
2018-04-18T09:56:46.427Z,10.13
2018-04-18T09:59:17.929Z,11.63
2018-04-18T10:01:48.936Z,8.53
2018-04-18T10:04:23.758Z,8.07
2018-04-18T10:06:54.835Z,8.70
2018-04-18T10:09:25.925Z,9.43
2018-04-18T10:11:56.620Z,9.93
2018-04-18T10:14:27.360Z,13.73
2018-04-18T10:16:58.513Z,8.63
2018-04-18T10:19:29.222Z,8.93
2018-04-18T10:22:00.248Z,8.87
2018-04-18T10:24:31.008Z,7.53
2018-04-18T10:27:01.924Z,10.40
2018-04-18T10:29:33.763Z,6.37
2018-04-18T10:32:04.467Z,7.07
2018-04-18T10:34:35.217Z,8.33
2018-04-18T10:37:06.377Z,9.10
2018-04-18T10:39:37.322Z,5.30
2018-04-18T10:42:08.208Z,6.03
2018-04-18T10:44:39.044Z,8.00
2018-04-18T10:47:09.870Z,7.47
2018-04-18T10:49:40.579Z,8.40
2018-04-18T10:52:11.426Z,6.30
2018-04-18T10:54:42.563Z,6.77
2018-04-18T10:57:13.652Z,7.40
2018-04-18T10:59:44.371Z,4.27
2018-04-18T11:02:15.251Z,9.13
2018-04-18T11:04:46.043Z,5.47
2018-04-18T11:07:17.248Z,6.23
2018-04-18T11:09:47.962Z,6.67
2018-04-18T11:12:19.433Z,6.67
2018-04-18T11:14:50.544Z,9.63
2018-04-18T11:17:21.376Z,10.13
2018-04-18T11:19:52.107Z,8.00
2018-04-18T11:24:56.973Z,7.47
2018-04-18T11:27:27.869Z,4.70
2018-04-18T11:29:59.801Z,5.87
2018-04-18T11:32:30.497Z,5.93
2018-04-18T11:35:01.216Z,7.30
2018-04-18T11:37:31.892Z,6.33
2018-04-18T11:40:02.845Z,7.10
2018-04-18T11:42:34.344Z,6.37
2018-04-18T11:45:05.392Z,8.20
2018-04-18T11:47:36.112Z,7.17
2018-04-18T11:50:06.826Z,9.30
2018-04-18T11:52:37.591Z,10.70
2018-04-18T11:55:08.864Z,8.47
2018-04-18T11:57:39.557Z,6.70
2018-04-18T12:00:10.240Z,6.23
2018-04-18T12:02:41.228Z,10.00
2018-04-18T12:05:12.268Z,10.10
2018-04-18T12:07:42.933Z,8.07
2018-04-18T12:10:14.773Z,9.17
2018-04-18T12:12:45.500Z,7.43
2018-04-18T12:15:16.380Z,6.93
2018-04-18T12:17:47.412Z,9.43
2018-04-18T12:20:18.108Z,7.10
2018-04-18T12:22:48.868Z,7.17
2018-04-18T12:25:19.937Z,9.00
2018-04-18T12:27:50.609Z,7.43
2018-04-18T12:30:21.685Z,8.30
2018-04-18T12:32:52.703Z,10.77
2018-04-18T12:35:23.473Z,6.87
2018-04-18T12:37:54.240Z,5.60
2018-04-18T12:40:26.424Z,8.20
2018-04-18T12:42:57.264Z,7.50
2018-04-18T12:45:28.159Z,8.33
2018-04-18T12:47:59.139Z,11.33
2018-04-18T12:50:30.728Z,7.80
2018-04-18T12:53:01.468Z,8.90
2018-04-18T12:55:32.513Z,9.90
2018-04-18T12:58:03.210Z,8.50
2018-04-18T13:00:34.209Z,7.73
2018-04-18T13:03:05.296Z,9.77
2018-04-18T13:05:36.068Z,9.60
2018-04-18T13:08:07.032Z,7.37
2018-04-18T13:10:38.897Z,10.10
2018-04-18T13:13:10.346Z,9.53
2018-04-18T13:15:41.808Z,10.30
2018-04-18T13:18:13.720Z,10.07
2018-04-18T13:20:44.552Z,7.47
2018-04-18T13:23:15.419Z,9.07
2018-04-18T13:25:46.401Z,7.33
2018-04-18T13:28:17.145Z,8.30
2018-04-18T13:30:47.870Z,7.90
2018-04-18T13:33:19.697Z,9.07
2018-04-18T13:35:51.422Z,8.70
2018-04-18T13:38:22.255Z,8.80
2018-04-18T13:40:53.221Z,11.20
2018-04-18T13:43:23.896Z,8.50
2018-04-18T13:45:54.752Z,11.70
2018-04-18T13:48:25.462Z,6.03
2018-04-18T13:50:56.324Z,7.70
2018-04-18T13:53:27.045Z,7.07
2018-04-18T13:55:58.040Z,10.33
2018-04-18T13:58:29.141Z,9.83
2018-04-18T14:00:59.856Z,9.60
2018-04-18T14:03:30.600Z,8.07
2018-04-18T14:06:01.709Z,8.67
2018-04-18T14:08:32.449Z,8.13
2018-04-18T14:11:03.321Z,8.20
2018-04-18T14:13:33.976Z,10.03
2018-04-18T14:16:04.948Z,7.47
2018-04-18T14:18:36.835Z,8.20
2018-04-18T14:21:07.656Z,8.87
2018-04-18T14:23:38.416Z,6.77
2018-04-18T14:26:09.384Z,6.93
2018-04-18T14:28:40.048Z,7.30
2018-04-18T14:31:11.831Z,7.93
2018-04-18T14:33:42.505Z,8.13
2018-04-18T14:36:13.515Z,8.13
2018-04-18T14:38:44.184Z,7.33
2018-04-18T14:41:15.661Z,9.67
2018-04-18T14:43:47.409Z,7.40
2018-04-18T14:46:17.751Z,8.73
2018-04-18T14:48:48.416Z,7.33
2018-04-18T14:51:19.112Z,6.80
2018-04-18T14:53:50.607Z,10.07
2018-04-18T14:56:21.668Z,9.60
2018-04-18T14:58:53.175Z,8.57
2018-04-18T15:01:23.940Z,8.03
2018-04-18T15:03:54.772Z,9.63
2018-04-18T15:06:25.618Z,8.43
2018-04-18T15:08:56.372Z,11.43
2018-04-18T15:11:27.117Z,7.40
2018-04-18T15:13:58.816Z,8.93
2018-04-18T15:16:29.816Z,9.70
2018-04-18T15:19:00.588Z,9.33
2018-04-18T15:21:31.428Z,7.47
2018-04-18T15:24:02.104Z,11.97
2018-04-18T15:26:33.211Z,10.43
2018-04-18T15:29:06.258Z,8.87
2018-04-18T15:31:37.600Z,8.70
2018-04-18T15:34:09.368Z,7.80
2018-04-18T15:36:40.964Z,8.40
2018-04-18T15:39:11.696Z,10.70
2018-04-18T15:41:42.445Z,9.10
2018-04-18T15:44:14.287Z,8.90
2018-04-18T15:46:46.293Z,7.97
2018-04-18T15:49:17.007Z,9.67
2018-04-18T15:51:47.740Z,10.83
2018-04-18T15:54:19.157Z,8.90
2018-04-18T15:56:52.578Z,10.03
2018-04-18T15:59:24.784Z,9.27
2018-04-18T16:01:55.768Z,10.23
2018-04-18T16:04:26.932Z,7.23
2018-04-18T16:06:57.798Z,8.00
2018-04-18T16:09:29.580Z,9.27
2018-04-18T16:12:10.145Z,6.83
2018-04-18T16:14:42.111Z,9.80
2018-04-18T16:17:12.866Z,7.87
2018-04-18T16:19:43.838Z,7.90
2018-04-18T16:22:14.780Z,9.03
2018-04-18T16:24:45.447Z,8.03
2018-04-18T16:27:17.125Z,9.50
2018-04-18T16:29:47.872Z,9.10
2018-04-18T16:32:20.077Z,10.40
2018-04-18T16:34:50.860Z,11.20
2018-04-18T16:37:22.331Z,9.00
2018-04-18T16:39:53.020Z,8.63
2018-04-18T16:42:23.943Z,10.10
2018-04-18T16:44:55.372Z,11.57
2018-04-18T16:47:26.421Z,12.40
2018-04-18T16:49:57.092Z,11.93
2018-04-18T16:52:28.967Z,11.57
2018-04-18T16:54:59.649Z,12.93
2018-04-18T16:57:30.397Z,12.90
2018-04-18T17:00:01.348Z,8.07
2018-04-18T17:02:32.863Z,10.53
2018-04-18T17:05:03.720Z,10.20
2018-04-18T17:07:35.108Z,11.00
2018-04-18T17:10:05.838Z,10.97
2018-04-18T17:12:37.560Z,8.53
2018-04-18T17:15:08.628Z,12.87
2018-04-18T17:17:40.296Z,10.07
2018-04-18T17:20:11.801Z,11.73
2018-04-18T17:22:42.484Z,11.37
2018-04-18T17:25:13.180Z,14.00
2018-04-18T17:27:43.945Z,12.23
2018-04-18T17:30:15.393Z,12.93
2018-04-18T17:32:47.125Z,9.67
2018-04-18T17:35:18.676Z,9.93
2018-04-18T17:37:49.708Z,10.60
2018-04-18T17:40:20.436Z,14.47
2018-04-18T17:42:51.119Z,15.07
2018-04-18T17:45:22.127Z,11.83
2018-04-18T17:47:53.905Z,10.87
2018-04-18T17:50:24.629Z,12.50
2018-04-18T17:52:56.188Z,8.67
2018-04-18T17:55:27.789Z,9.90
2018-04-18T17:57:58.638Z,14.93
2018-04-18T18:00:29.428Z,12.03
2018-04-18T18:03:00.380Z,9.03
2018-04-18T18:05:31.009Z,12.73
2018-04-18T18:08:01.817Z,9.53
2018-04-18T18:10:33.211Z,10.30
2018-04-18T18:13:04.013Z,10.20
2018-04-18T18:15:34.955Z,12.07
2018-04-18T18:18:05.966Z,16.20
2018-04-18T18:20:37.486Z,11.40
2018-04-18T18:23:08.455Z,8.97
2018-04-18T18:25:39.146Z,9.90
2018-04-18T18:28:10.235Z,13.70
2018-04-18T18:30:42.052Z,7.93
2018-04-18T18:33:12.725Z,13.07
2018-04-18T18:35:44.294Z,40.53
2018-04-18T18:38:15.434Z,22.47
2018-04-18T18:40:46.844Z,23.87
2018-04-18T18:43:17.692Z,25.60
2018-04-18T18:45:48.363Z,21.83
2018-04-18T18:48:19.713Z,14.63
2018-04-18T18:50:50.356Z,29.80
2018-04-18T18:53:21.914Z,29.27
2018-04-18T18:55:52.687Z,17.37
2018-04-18T18:58:23.387Z,22.07
2018-04-18T19:00:54.707Z,17.87
2018-04-18T19:03:26.424Z,18.30
2018-04-18T19:05:57.131Z,16.80
2018-04-18T19:08:27.866Z,18.53
2018-04-18T19:10:58.671Z,16.30
2018-04-18T19:13:29.844Z,15.00
2018-04-18T19:16:00.534Z,14.70
2018-04-18T19:18:32.362Z,17.97
2018-04-18T19:21:03.058Z,17.10
2018-04-18T19:23:33.831Z,15.57
2018-04-18T19:26:04.544Z,13.20
2018-04-18T19:28:35.549Z,16.53
2018-04-18T19:31:06.648Z,15.13
2018-04-18T19:33:37.796Z,25.00
2018-04-18T19:36:08.480Z,16.27
2018-04-18T19:38:40.112Z,12.67
2018-04-18T19:41:10.776Z,10.33
2018-04-18T19:43:41.755Z,14.97
2018-04-18T19:46:13.208Z,14.37
2018-04-18T19:48:44.288Z,14.50
2018-04-18T19:51:15.088Z,14.70
2018-04-18T19:53:46.610Z,13.07
2018-04-18T19:56:17.431Z,12.87
2018-04-18T19:58:48.897Z,14.77
2018-04-18T20:01:20.002Z,15.03
2018-04-18T20:03:50.867Z,12.73
2018-04-18T20:06:21.560Z,14.10
2018-04-18T20:08:52.407Z,12.23
2018-04-18T20:11:23.063Z,10.63
2018-04-18T20:13:54.142Z,15.40
2018-04-18T20:16:27.713Z,15.53
2018-04-18T20:18:59.576Z,11.30
2018-04-18T20:21:30.272Z,16.23
2018-04-18T20:24:01.031Z,13.73
2018-04-18T20:26:31.695Z,9.20
2018-04-18T20:29:02.698Z,11.57
2018-04-18T20:31:33.594Z,13.27
2018-04-18T20:34:05.360Z,12.67
2018-04-18T20:36:36.079Z,15.57
2018-04-18T20:39:07.358Z,13.03
2018-04-18T20:41:38.027Z,13.63
2018-04-18T20:44:09.088Z,13.23
2018-04-18T20:46:39.771Z,13.33
2018-04-18T20:49:10.858Z,14.37
2018-04-18T20:51:41.575Z,9.53
2018-04-18T20:54:12.368Z,13.33
2018-04-18T20:56:43.066Z,12.03
2018-04-18T20:59:13.775Z,14.53
2018-04-18T21:01:45.204Z,13.97
2018-04-18T21:04:16.154Z,10.13
2018-04-18T21:06:46.833Z,9.83
2018-04-18T21:09:18.587Z,8.70
2018-04-18T21:11:49.275Z,10.50
2018-04-18T21:14:19.946Z,11.40
2018-04-18T21:16:50.630Z,13.20
2018-04-18T21:19:21.917Z,14.83
2018-04-18T21:21:53.362Z,12.10
2018-04-18T21:24:24.857Z,21.37
2018-04-18T21:26:55.484Z,15.50
2018-04-18T21:29:26.252Z,15.17
2018-04-18T21:31:56.934Z,17.77
2018-04-18T21:34:27.876Z,15.47
2018-04-18T21:36:58.487Z,19.27
2018-04-18T21:39:29.586Z,12.97
2018-04-18T21:42:00.285Z,9.30
2018-04-18T21:44:31.266Z,11.60
2018-04-18T21:47:01.840Z,10.57
2018-04-18T21:49:32.408Z,10.50
2018-04-18T21:52:03.174Z,12.93
2018-04-18T21:54:34.268Z,12.73
2018-04-18T21:57:04.938Z,10.17
2018-04-18T21:59:35.617Z,12.30
2018-04-18T22:02:06.280Z,11.80
2018-04-18T22:04:37.210Z,11.00
2018-04-18T22:07:07.849Z,12.30
2018-04-18T22:09:38.970Z,13.60
2018-04-18T22:12:09.637Z,15.33
2018-04-18T22:14:40.600Z,13.07
2018-04-18T22:17:11.302Z,13.87
2018-04-18T22:19:42.783Z,17.37
2018-04-18T22:22:14.219Z,12.53
2018-04-18T22:24:44.883Z,14.10
2018-04-18T22:27:15.576Z,13.20
2018-04-18T22:29:46.687Z,13.87
2018-04-18T22:32:17.341Z,14.03
2018-04-18T22:34:47.995Z,18.83
2018-04-18T22:37:18.643Z,20.13
2018-04-18T22:39:50.715Z,18.90
2018-04-18T22:42:21.395Z,19.23
2018-04-18T22:44:52.237Z,21.63
2018-04-18T22:47:22.939Z,18.13
2018-04-18T22:49:53.900Z,16.43
2018-04-18T22:52:24.617Z,20.73
2018-04-18T22:54:55.655Z,19.30
2018-04-18T22:57:26.309Z,16.30
2018-04-18T22:59:57.140Z,15.13
2018-04-18T23:02:27.827Z,17.70
2018-04-18T23:04:59.624Z,18.17
2018-04-18T23:07:30.289Z,19.87
2018-04-18T23:10:01.446Z,16.90
2018-04-18T23:12:32.889Z,17.40
2018-04-18T23:15:03.860Z,17.77
2018-04-18T23:17:34.517Z,18.47
2018-04-18T23:20:05.295Z,19.43
2018-04-18T23:40:35.478Z,19.57
2018-04-18T23:43:06.357Z,16.40
2018-04-18T23:45:37.585Z,24.93
2018-04-18T23:48:09.208Z,21.03
2018-04-18T23:50:40.426Z,25.53
2018-04-18T23:53:12.035Z,23.80
2018-04-18T23:55:43.549Z,20.40
2018-04-18T23:58:14.674Z,20.00
